Micaville, North Carolina
Current Conditions -  °F | °C
As of 4:15 PM on Monday 22 Dec 2014 (Local Time) from K0A9 Reporting Station
Overcast Overcast  
Wind Chill: 52°   Ceiling: 8000
Heat Index: 52°   Visibility: 10mi
Dew Point: 39°   Wind: 8mph
Humidity: 62%   Direction: 110°ESE
Pressure: 29.89"   Gusts: NA
Location:  35.91°N, 82.21°W
Report Text: K0A9 222115Z AUTO 11007KT 10SM BKN080 OVC085 11/04 A2989 RMK
Loading
Personal Weather Stations






























Interactive Weather Map New forecast layout! Learn more

10-Day Weather Forecast

Advertisements
Track Severe Weather on mobile